Beauraing, Belgium
Current Conditions -  °F | °C
As of 5:25 PM on Thursday 29 Jan 2015 (Local Time) from EBFS Reporting Station
Light Snow Light Snow  
Wind Chill: 26°   Ceiling: 500
Heat Index: 34°   Visibility: 3mi
Dew Point: 34°   Wind: 10mph
Humidity: 100%   Direction: 220°SW
Pressure: 28.91"   Gusts: NA
Location:  50.11°N, 4.96°E
Report Text: EBFS 291625Z 22009KT 5000 -RASN FEW003 BKN005 BKN007 01/01 Q0979 YLO
Loading
Personal Weather Stations






























Interactive Weather Map New forecast layout! Learn more

10-Day Weather Forecast

Advertisements
Track Severe Weather on mobile